Flag Island, MN

2:31 AM CST on November 23, 2017 (GMT -0600)
Flag Island

Weather History for KFGN - September, 2012

Change the Weather History Date:

Friday, September 28, 2012

  Actual Average Record
Temperature  
Mean Temperature 57 °F -  
Max Temperature 64 °F 52 °F 77 °F (2011)
Min Temperature 50 °F 40 °F 37 °F (1999)
Degree Days  
Heating Degree Days 8    
Growing Degree Days 7 (Base 50)    
Moisture  
Dew Point 46 °F    
Average Humidity 69    
Maximum Humidity 88    
Minimum Humidity 32    
Precipitation  
Precipitation 0.00 in - - ()
Sea Level Pressure  
Sea Level Pressure 30.10 in    
Wind  
Wind Speed 1 mph (SSE)    
Max Wind Speed 6 mph    
Max Gust Speed -    
Visibility 10 miles    
Events      
Averages and records for this station are not official NWS values.
T = Trace of Precipitation, MM = Missing Value Source: NWS Daily Summary

Daily Weather History Graph

Daily Weather History Graph

Search for Another Location

Airport or City:

Trip Planner

Search our weather history database for the weather conditions in past years. The results will help you decide how hot, cold, wet, or windy it might be!

Date:

Astronomy

Sep. 28, 2012 Rise Set
Actual Time 7:15 AM CDT 7:03 PM CDT
Civil Twilight 6:43 AM CDT 7:35 PM CDT
Nautical Twilight 6:06 AM CDT 8:12 PM CDT
Astronomical Twilight 5:28 AM CDT 8:50 PM CDT
Moon 6:07 PM CDT (9/28) 5:43 AM CDT (9/28)
Length of Visible Light 12h 51m
Length of Day
11h 47m
Waxing Gibbous, 98% of the Moon is Illuminated
Sep 28
Waxing Gibbous
Sep 29
Full
Oct 8
Last Quarter
Oct 15
New
Oct 21
First Quarter

Hourly Weather History & Observations

Time (CDT) Temp. Dew Point Humidity Pressure Visibility Wind Dir Wind Speed Gust Speed Precip Events Conditions
12:13 AM 53.6 °F 44.6 °F 72% 30.12 in 10.0 mi Calm Calm - N/A   Clear
12:33 AM 53.6 °F 48.2 °F 82% 30.12 in 10.0 mi Calm Calm - N/A   Clear
12:54 AM 53.6 °F 48.2 °F 82% 30.12 in 10.0 mi Calm Calm - N/A   Clear
1:13 AM 51.8 °F 48.2 °F 88% 30.12 in 10.0 mi Calm Calm - N/A   Clear
1:54 AM 55.4 °F 44.6 °F 67% 30.12 in 10.0 mi SSE 5.8 mph - N/A   Clear
2:13 AM 55.4 °F 44.6 °F 67% 30.12 in 10.0 mi SSE 4.6 mph - N/A   Clear
2:34 AM 55.4 °F 44.6 °F 67% 30.11 in 10.0 mi SSE 4.6 mph - N/A   Clear
2:54 AM 53.6 °F 46.4 °F 77% 30.11 in 10.0 mi SSE 3.5 mph - N/A   Clear
3:13 AM 53.6 °F 46.4 °F 77% 30.11 in 10.0 mi SE 3.5 mph - N/A   Clear
3:34 AM 53.6 °F 44.6 °F 72% 30.11 in 10.0 mi ESE 3.5 mph - N/A   Clear
3:54 AM 53.6 °F 44.6 °F 72% 30.11 in 10.0 mi Calm Calm - N/A   Clear
4:13 AM 53.6 °F 46.4 °F 77% 30.11 in 10.0 mi Calm Calm - N/A   Clear
4:34 AM 51.8 °F 46.4 °F 82% 30.10 in 10.0 mi Calm Calm - N/A   Clear
4:54 AM 51.8 °F 46.4 °F 82% 30.10 in 10.0 mi Calm Calm - N/A   Clear
5:13 AM 51.8 °F 46.4 °F 82% 30.10 in 10.0 mi Calm Calm - N/A   Clear
5:34 AM 51.8 °F 46.4 °F 82% 30.10 in 10.0 mi Calm Calm - N/A   Clear
5:54 AM 51.8 °F 46.4 °F 82% 30.11 in 10.0 mi Calm Calm - N/A   Clear
6:13 AM 51.8 °F 46.4 °F 82% 30.10 in 10.0 mi Calm Calm - N/A   Clear
6:34 AM 51.8 °F 46.4 °F 82% 30.11 in 10.0 mi Calm Calm - N/A   Clear
6:53 AM 50.0 °F 46.4 °F 87% 30.10 in 10.0 mi Calm Calm - N/A   Clear
7:14 AM 50.0 °F 46.4 °F 87% 30.11 in 10.0 mi Calm Calm - N/A   Clear
7:33 AM 50.0 °F 46.4 °F 87% 30.10 in 10.0 mi ESE 3.5 mph - N/A   Clear
7:53 AM 50.0 °F 46.4 °F 87% 30.11 in 10.0 mi Calm Calm - N/A   Clear
8:14 AM 50.0 °F 46.4 °F 87% 30.11 in 10.0 mi ESE 3.5 mph - N/A   Clear
8:33 AM 51.8 °F 46.4 °F 82% 30.12 in 10.0 mi East 3.5 mph - N/A   Clear
8:53 AM 51.8 °F 46.4 °F 82% 30.12 in 10.0 mi Calm Calm - N/A   Clear
9:14 AM 53.6 °F 46.4 °F 77% 30.12 in 10.0 mi Calm Calm - N/A   Clear
9:33 AM 55.4 °F 44.6 °F 67% 30.13 in 10.0 mi SE 3.5 mph - N/A   Clear
9:53 AM 55.4 °F 44.6 °F 67% 30.13 in 10.0 mi SSE 3.5 mph - N/A   Clear
10:14 AM 55.4 °F 44.6 °F 67% 30.13 in 10.0 mi SSE 4.6 mph - N/A   Clear
10:33 AM 53.6 °F 44.6 °F 72% 30.13 in 10.0 mi SSE 5.8 mph - N/A   Clear
10:53 AM 55.4 °F 44.6 °F 67% 30.13 in 10.0 mi SSE 4.6 mph - N/A   Clear
11:14 AM 55.4 °F 46.4 °F 72% 30.13 in 10.0 mi South 3.5 mph - N/A   Clear
11:33 AM 55.4 °F 46.4 °F 72% 30.13 in 10.0 mi South 4.6 mph - N/A   Clear
11:53 AM 55.4 °F 46.4 °F 72% 30.13 in 10.0 mi South 3.5 mph - N/A   Clear
12:14 PM 57.2 °F 46.4 °F 67% 30.13 in 10.0 mi Calm Calm - N/A   Clear
12:33 PM 57.2 °F 46.4 °F 67% 30.13 in 10.0 mi Calm Calm - N/A   Clear
12:53 PM 57.2 °F 48.2 °F 72% 30.12 in 10.0 mi Calm Calm - N/A   Clear
1:14 PM 57.2 °F 46.4 °F 67% 30.11 in 10.0 mi Calm Calm - N/A   Clear
1:33 PM 59.0 °F 46.4 °F 63% 30.11 in 10.0 mi SSW 3.5 mph - N/A   Clear
1:53 PM 60.8 °F 44.6 °F 55% 30.10 in 10.0 mi Calm Calm - N/A   Clear
2:14 PM 62.6 °F 44.6 °F 52% 30.10 in 10.0 mi Calm Calm - N/A   Clear
2:53 PM 62.6 °F 42.8 °F 48% 30.10 in 10.0 mi Calm Calm - N/A   Clear
3:14 PM 64.4 °F 39.2 °F 40% 30.10 in 10.0 mi Calm Calm - N/A   Clear
3:33 PM 64.4 °F 46.4 °F 52% 30.09 in 10.0 mi Calm Calm - N/A   Clear
3:53 PM 64.4 °F 48.2 °F 56% 30.09 in 10.0 mi Calm Calm - N/A   Clear
4:14 PM 64.4 °F 44.6 °F 49% 30.08 in 10.0 mi South 3.5 mph - N/A   Clear
4:33 PM 64.4 °F 46.4 °F 52% 30.08 in 10.0 mi South 3.5 mph - N/A   Clear
4:53 PM 64.4 °F 44.6 °F 49% 30.08 in 10.0 mi South 3.5 mph - N/A   Clear
5:14 PM 62.6 °F 51.8 °F 68% 30.08 in 10.0 mi South 3.5 mph - N/A   Clear
5:33 PM 62.6 °F 44.6 °F 52% 30.07 in 10.0 mi SSE 3.5 mph - N/A   Clear
5:54 PM 64.4 °F 35.6 °F 34% 30.07 in 10.0 mi Calm Calm - N/A   Clear
6:14 PM 64.4 °F 33.8 °F 32% 30.07 in 10.0 mi Calm Calm - N/A   Clear
6:33 PM 64.4 °F 35.6 °F 34% 30.07 in 10.0 mi Calm Calm - N/A   Clear
6:54 PM 62.6 °F 39.2 °F 42% 30.07 in 10.0 mi SSE 3.5 mph - N/A   Clear
7:14 PM 60.8 °F 48.2 °F 63% 30.07 in 10.0 mi Calm Calm - N/A   Clear
7:54 PM 57.2 °F 46.4 °F 67% 30.07 in 10.0 mi Calm Calm - N/A   Clear
8:14 PM 57.2 °F 44.6 °F 63% 30.07 in 10.0 mi Calm Calm - N/A   Clear
8:33 PM 59.0 °F 44.6 °F 59% 30.07 in 10.0 mi Calm Calm - N/A   Clear
8:54 PM 59.0 °F 44.6 °F 59% 30.07 in 10.0 mi Calm Calm - N/A   Clear
9:14 PM 57.2 °F 46.4 °F 67% 30.07 in 10.0 mi Calm Calm - N/A   Clear
9:33 PM 55.4 °F 44.6 °F 67% 30.07 in 10.0 mi Calm Calm - N/A   Clear
9:54 PM 55.4 °F 48.2 °F 77% 30.08 in 10.0 mi Calm Calm - N/A   Clear
10:13 PM 53.6 °F 48.2 °F 82% 30.08 in 10.0 mi Calm Calm - N/A   Clear
10:33 PM 53.6 °F 48.2 °F 82% 30.08 in 10.0 mi Calm Calm - N/A   Clear
10:54 PM 53.6 °F 48.2 °F 82% 30.08 in 10.0 mi Calm Calm - N/A   Clear
11:13 PM 53.6 °F 48.2 °F 82% 30.08 in 10.0 mi Calm Calm - N/A   Clear
11:33 PM 53.6 °F 48.2 °F 82% 30.08 in 10.0 mi Calm Calm - N/A   Clear
11:54 PM 53.6 °F 48.2 °F 82% 30.08 in 10.0 mi Calm Calm - N/A   Clear